Time;durP1;ratioP1;P1;durP2;ratioP2;P2;SDS_P1;SDS_P2;PMS_P1;PMS_P2;Temp;Humidity;BMP_temperature;BMP_pressure;BME280_temperature;BME280_humidity;BME280_pressure;Samples;Min_cycle;Max_cycle;Signal;HPM_P1;HPM_P2
2022/07/12 00:00:38;;;;;;;12.27;7.68;;;;;;;;;;5002258;28;20038;-87
2022/07/12 00:03:04;;;;;;;17.00;8.50;;;;;;;;;;4999932;28;20463;-87
2022/07/12 00:07:59;;;;;;;17.38;8.65;;;;;;;;;;4999847;28;20046;-89
2022/07/12 00:10:26;;;;;;;17.23;9.10;;;;;;;;;;4995786;28;20038;-91
2022/07/12 00:12:54;;;;;;;16.35;8.30;;;;;;;;;;4997972;28;20106;-88
2022/07/12 00:15:35;;;;;;;18.55;9.15;;;;;;;;;;4963248;28;20420;-87
2022/07/12 00:18:02;;;;;;;18.38;9.63;;;;;;;;;;4993054;28;20690;-88
2022/07/12 00:20:28;;;;;;;16.85;8.95;;;;;;;;;;4997474;28;20050;-87
2022/07/12 00:22:55;;;;;;;18.23;9.10;;;;;;;;;;4978104;28;20038;-87
2022/07/12 00:25:22;;;;;;;16.05;9.43;;;;;;;;;;4991550;28;20069;-87
2022/07/12 00:27:48;;;;;;;24.73;9.90;;;;;;;;;;4977257;28;20046;-87
2022/07/12 00:30:14;;;;;;;18.27;9.53;;;;;;;;;;4993135;28;20165;-87
2022/07/12 00:32:40;;;;;;;14.45;9.20;;;;;;;;;;4975181;28;20026;-88
2022/07/12 00:35:06;;;;;;;26.23;9.80;;;;;;;;;;4977951;28;20053;-87
2022/07/12 00:37:32;;;;;;;16.27;10.57;;;;;;;;;;5000572;28;20042;-88
2022/07/12 00:40:03;;;;;;;19.33;10.65;;;;;;;;;;4978321;28;20590;-87
2022/07/12 00:45:04;;;;;;;24.20;10.25;;;;;;;;;;5001273;28;20023;-88
2022/07/12 00:47:36;;;;;;;21.15;10.65;;;;;;;;;;5004268;28;20050;-89
2022/07/12 00:50:06;;;;;;;24.17;10.43;;;;;;;;;;4990507;28;20089;-89
2022/07/12 00:52:32;;;;;;;23.85;10.82;;;;;;;;;;4991987;28;20018;-91
2022/07/12 00:57:28;;;;;;;22.50;11.70;;;;;;;;;;5007025;28;20039;-88
2022/07/12 00:59:54;;;;;;;21.98;12.23;;;;;;;;;;4991607;28;20050;-88
2022/07/12 01:02:20;;;;;;;26.77;14.02;;;;;;;;;;4954697;28;20595;-91
2022/07/12 01:04:47;;;;;;;28.77;14.63;;;;;;;;;;4989760;28;20038;-89
2022/07/12 01:07:14;;;;;;;24.08;13.30;;;;;;;;;;5002952;28;20073;-86
2022/07/12 01:09:40;;;;;;;28.17;12.55;;;;;;;;;;5000068;28;20122;-88
2022/07/12 01:12:07;;;;;;;22.20;12.20;;;;;;;;;;4995585;28;20042;-89
2022/07/12 01:14:38;;;;;;;24.05;11.45;;;;;;;;;;4996358;28;20105;-88
2022/07/12 01:17:04;;;;;;;18.80;10.85;;;;;;;;;;4979847;28;20034;-87
2022/07/12 01:21:59;;;;;;;24.42;10.50;;;;;;;;;;4997137;28;20030;-88
2022/07/12 01:24:25;;;;;;;20.77;10.23;;;;;;;;;;4995136;28;20045;-89
2022/07/12 01:26:51;;;;;;;26.67;10.97;;;;;;;;;;4997605;28;20415;-88
2022/07/12 01:29:28;;;;;;;22.87;12.27;;;;;;;;;;5002310;28;20090;-93
2022/07/12 01:31:54;;;;;;;15.77;10.75;;;;;;;;;;4999962;28;20034;-89
2022/07/12 01:34:23;;;;;;;19.58;11.90;;;;;;;;;;4985081;28;20488;-90
2022/07/12 01:36:49;;;;;;;28.17;12.20;;;;;;;;;;4983576;28;20026;-88
2022/07/12 01:39:15;;;;;;;35.10;13.50;;;;;;;;;;5002417;28;20046;-87
2022/07/12 01:41:42;;;;;;;26.60;13.27;;;;;;;;;;4989028;28;20313;-89
2022/07/12 01:44:08;;;;;;;23.35;13.90;;;;;;;;;;4983991;28;20554;-85
2022/07/12 01:46:34;;;;;;;26.20;13.37;;;;;;;;;;4999251;28;20038;-85
2022/07/12 01:49:01;;;;;;;29.25;12.43;;;;;;;;;;4982840;28;20289;-83
2022/07/12 01:51:30;;;;;;;;;;;;;;;;;;4998754;28;20038;-85
2022/07/12 01:53:56;;;;;;;25.80;12.55;;;;;;;;;;4962917;28;19918;-86
2022/07/12 01:56:22;;;;;;;29.15;14.73;;;;;;;;;;4972250;28;20102;-87
2022/07/12 01:58:49;;;;;;;36.60;13.52;;;;;;;;;;4979201;28;20105;-88
2022/07/12 02:01:16;;;;;;;27.30;14.05;;;;;;;;;;4996672;28;20050;-86
2022/07/12 02:03:42;;;;;;;46.88;21.33;;;;;;;;;;4977343;28;20038;-89
2022/07/12 02:06:08;;;;;;;30.08;13.95;;;;;;;;;;4962483;28;20073;-89
2022/07/12 02:08:34;;;;;;;30.03;15.17;;;;;;;;;;4964433;28;20038;-89
2022/07/12 02:11:00;;;;;;;35.35;16.45;;;;;;;;;;4961249;28;20296;-88
2022/07/12 02:13:26;;;;;;;33.60;16.47;;;;;;;;;;4977966;28;20034;-88
2022/07/12 02:16:12;;;;;;;36.83;18.98;;;;;;;;;;4954166;28;20041;-87
2022/07/12 02:21:10;;;;;;;42.28;16.45;;;;;;;;;;4996395;28;20050;-91
2022/07/12 02:23:36;;;;;;;34.83;16.63;;;;;;;;;;4964190;28;20041;-89
2022/07/12 02:26:01;;;;;;;28.83;14.87;;;;;;;;;;4996039;28;20389;-92
2022/07/12 02:28:29;;;;;;;43.27;16.07;;;;;;;;;;4978646;28;20034;-88
2022/07/12 02:30:55;;;;;;;24.90;16.00;;;;;;;;;;4962590;28;20034;-92
2022/07/12 02:33:21;;;;;;;26.60;15.23;;;;;;;;;;4978515;28;20118;-88
2022/07/12 02:35:47;;;;;;;26.90;14.90;;;;;;;;;;4995312;28;20281;-82
2022/07/12 02:38:14;;;;;;;28.00;13.88;;;;;;;;;;4994649;28;20042;-85
2022/07/12 02:40:55;;;;;;;25.65;14.43;;;;;;;;;;4994196;28;20050;-88
2022/07/12 02:43:24;;;;;;;34.20;14.38;;;;;;;;;;4995298;28;20030;-90
2022/07/12 02:45:51;;;;;;;35.83;15.00;;;;;;;;;;4962467;28;20031;-87
2022/07/12 02:48:17;;;;;;;;;;;;;;;;;;4995826;28;20060;-86
2022/07/12 02:50:43;;;;;;;33.30;15.30;;;;;;;;;;4981264;28;20356;-93
2022/07/12 02:53:10;;;;;;;32.08;15.15;;;;;;;;;;4962964;28;20036;-86
2022/07/12 02:55:35;;;;;;;;;;;;;;;;;;4996411;28;20549;-88
2022/07/12 02:58:07;;;;;;;33.35;15.77;;;;;;;;;;5013198;28;19914;-89
2022/07/12 03:00:34;;;;;;;42.40;15.15;;;;;;;;;;5013530;28;20125;-88
2022/07/12 03:03:00;;;;;;;47.00;14.68;;;;;;;;;;5015638;28;20037;-87
2022/07/12 03:05:26;;;;;;;35.50;15.55;;;;;;;;;;5015320;28;20525;-93
2022/07/12 03:07:52;;;;;;;35.43;15.47;;;;;;;;;;5015132;28;20038;-88
2022/07/12 03:10:18;;;;;;;37.53;14.97;;;;;;;;;;4997417;28;20489;-89
2022/07/12 03:12:44;;;;;;;32.23;15.77;;;;;;;;;;5014009;28;20053;-86
2022/07/12 03:15:11;;;;;;;37.27;15.17;;;;;;;;;;4964343;28;20065;-87
2022/07/12 03:17:37;;;;;;;41.63;16.63;;;;;;;;;;4966575;28;20285;-88
2022/07/12 03:20:08;;;;;;;26.40;15.57;;;;;;;;;;4957155;28;20041;-88
2022/07/12 03:22:34;;;;;;;34.08;16.10;;;;;;;;;;4979129;28;20038;-88
2022/07/12 03:25:00;;;;;;;36.58;15.73;;;;;;;;;;5012481;28;20032;-87
2022/07/12 03:27:26;;;;;;;36.05;16.17;;;;;;;;;;4994994;28;20037;-92
2022/07/12 03:34:52;;;;;;;35.97;16.52;;;;;;;;;;5012042;28;20026;-87
2022/07/12 03:37:19;;;;;;;29.58;15.40;;;;;;;;;;4968461;28;20418;-93
2022/07/12 03:39:45;;;;;;;40.83;16.97;;;;;;;;;;4985335;28;20125;-93
2022/07/12 03:42:12;;;;;;;42.47;16.90;;;;;;;;;;4997703;28;20049;-89
2022/07/12 03:44:38;;;;;;;36.47;16.83;;;;;;;;;;4997700;28;20484;-88
2022/07/12 03:47:04;;;;;;;34.00;16.35;;;;;;;;;;4978913;28;20112;-88
2022/07/12 03:49:30;;;;;;;39.22;17.95;;;;;;;;;;4994991;28;20031;-88
2022/07/12 03:51:56;;;;;;;29.07;17.43;;;;;;;;;;4999783;28;20065;-88
2022/07/12 03:54:22;;;;;;;36.45;16.65;;;;;;;;;;4998725;28;20066;-88
2022/07/12 03:59:32;;;;;;;35.17;16.75;;;;;;;;;;4977777;28;20030;-93
2022/07/12 04:01:58;;;;;;;39.60;16.50;;;;;;;;;;4993244;28;20076;-88
2022/07/12 04:04:25;;;;;;;35.55;17.55;;;;;;;;;;4991472;28;20499;-88
2022/07/12 04:06:51;;;;;;;37.22;16.95;;;;;;;;;;4991468;28;20034;-87
2022/07/12 04:09:17;;;;;;;37.10;17.73;;;;;;;;;;4994974;28;20148;-89
2022/07/12 04:11:43;;;;;;;28.20;16.08;;;;;;;;;;4987173;28;20030;-91
2022/07/12 04:14:09;;;;;;;37.83;18.97;;;;;;;;;;4963379;28;20030;-86
2022/07/12 04:16:35;;;;;;;32.97;17.03;;;;;;;;;;4972469;28;20302;-87
2022/07/12 04:19:00;;;;;;;44.27;17.80;;;;;;;;;;4979905;28;20097;-84
2022/07/12 04:21:26;;;;;;;46.67;17.60;;;;;;;;;;4995151;28;20045;-84
2022/07/12 04:23:52;;;;;;;39.90;16.87;;;;;;;;;;4996972;28;20031;-85
2022/07/12 04:26:18;;;;;;;41.27;17.87;;;;;;;;;;4995283;28;20034;-87
2022/07/12 04:28:44;;;;;;;47.90;18.27;;;;;;;;;;4981765;28;20034;-93
2022/07/12 04:31:10;;;;;;;56.13;18.93;;;;;;;;;;5000546;28;20343;-92
2022/07/12 04:33:39;;;;;;;44.77;19.10;;;;;;;;;;4984998;28;20035;-94
2022/07/12 04:36:05;;;;;;;40.78;19.05;;;;;;;;;;4984568;28;20365;-85
2022/07/12 04:38:31;;;;;;;47.03;19.30;;;;;;;;;;5007498;28;20029;-85
2022/07/12 04:40:57;;;;;;;38.85;20.00;;;;;;;;;;5004933;28;20069;-85
2022/07/12 04:43:24;;;;;;;;;;;;;;;;;;5005629;28;20026;-84
2022/07/12 04:45:50;;;;;;;67.03;24.23;;;;;;;;;;5002483;28;19921;-85
2022/07/12 04:48:16;;;;;;;35.13;17.83;;;;;;;;;;5017301;28;20052;-86
2022/07/12 04:50:42;;;;;;;33.10;17.75;;;;;;;;;;5022692;28;20029;-85
2022/07/12 04:53:09;;;;;;;54.63;18.27;;;;;;;;;;5020196;28;20049;-85
2022/07/12 04:55:34;;;;;;;42.67;18.13;;;;;;;;;;5018978;28;20484;-85
2022/07/12 04:58:00;;;;;;;62.77;19.90;;;;;;;;;;4984585;28;20034;-84
2022/07/12 05:00:27;;;;;;;54.13;19.13;;;;;;;;;;5019564;28;20483;-84
2022/07/12 05:02:53;;;;;;;40.08;18.25;;;;;;;;;;5022028;28;20503;-85
2022/07/12 05:05:19;;;;;;;34.10;17.27;;;;;;;;;;5000996;28;20041;-84
2022/07/12 05:07:45;;;;;;;41.60;17.40;;;;;;;;;;5019986;28;20076;-85
2022/07/12 05:10:11;;;;;;;37.83;18.30;;;;;;;;;;5018929;28;20280;-84
2022/07/12 05:12:37;;;;;;;34.42;17.73;;;;;;;;;;5009412;28;20037;-85
2022/07/12 05:15:04;;;;;;;41.50;17.23;;;;;;;;;;5024340;28;20093;-84
2022/07/12 05:17:31;;;;;;;39.65;17.13;;;;;;;;;;5003589;28;20026;-85
2022/07/12 05:19:57;;;;;;;40.43;17.60;;;;;;;;;;5018463;28;20103;-85
2022/07/12 05:22:23;;;;;;;36.23;16.53;;;;;;;;;;4987857;28;20042;-87
2022/07/12 05:24:49;;;;;;;30.70;17.65;;;;;;;;;;5004909;28;20273;-85
2022/07/12 05:27:16;;;;;;;33.83;16.02;;;;;;;;;;4989451;28;20042;-84
2022/07/12 05:29:42;;;;;;;53.73;17.30;;;;;;;;;;5021614;28;20446;-84
2022/07/12 05:32:08;;;;;;;47.47;16.48;;;;;;;;;;5019462;28;20022;-84
2022/07/12 05:34:35;;;;;;;31.38;16.02;;;;;;;;;;5007747;28;20054;-85
2022/07/12 05:37:00;;;;;;;36.58;15.93;;;;;;;;;;5031350;28;20091;-89
2022/07/12 05:39:27;;;;;;;35.33;16.13;;;;;;;;;;5015771;28;20510;-84
2022/07/12 05:41:52;;;;;;;41.25;16.75;;;;;;;;;;5016849;28;20042;-84
2022/07/12 05:44:20;;;;;;;35.85;15.88;;;;;;;;;;4989397;28;20884;-93
2022/07/12 05:46:46;;;;;;;32.97;15.38;;;;;;;;;;5011317;28;20041;-86
2022/07/12 05:49:12;;;;;;;32.30;15.15;;;;;;;;;;5011929;28;20049;-86
2022/07/12 05:54:28;;;;;;;29.15;15.15;;;;;;;;;;5016919;28;20014;-83
2022/07/12 05:56:57;;;;;;;52.40;18.73;;;;;;;;;;5029708;28;20046;-85
2022/07/12 05:59:31;;;;;;;32.13;14.97;;;;;;;;;;5012230;28;20057;-85
2022/07/12 06:01:57;;;;;;;49.50;18.05;;;;;;;;;;5006560;28;20034;-82
2022/07/12 06:04:35;;;;;;;33.20;16.15;;;;;;;;;;5018331;28;20033;-86
2022/07/12 06:07:27;;;;;;;35.88;15.95;;;;;;;;;;5020112;28;20026;-83
2022/07/12 06:09:53;;;;;;;52.03;17.55;;;;;;;;;;4987222;28;20033;-84
2022/07/12 06:12:20;;;;;;;35.83;16.10;;;;;;;;;;5024309;28;20038;-96
2022/07/12 06:14:48;;;;;;;40.33;16.52;;;;;;;;;;5022368;28;20495;-85
2022/07/12 06:17:14;;;;;;;36.58;15.25;;;;;;;;;;5020303;28;20037;-83
2022/07/12 06:19:39;;;;;;;30.88;15.07;;;;;;;;;;5019153;28;20030;-84
2022/07/12 06:22:07;;;;;;;42.78;16.55;;;;;;;;;;5024494;28;20050;-84
2022/07/12 06:24:33;;;;;;;33.93;16.00;;;;;;;;;;4998124;28;20899;-83
2022/07/12 06:27:01;;;;;;;;;;;;;;;;;;5021457;28;20030;-83
2022/07/12 06:29:36;;;;;;;37.03;15.75;;;;;;;;;;5005712;28;20382;-84
2022/07/12 06:32:02;;;;;;;51.33;19.10;;;;;;;;;;5024667;28;20041;-85
2022/07/12 06:34:35;;;;;;;46.80;16.23;;;;;;;;;;5013427;28;20084;-84
2022/07/12 06:37:08;;;;;;;40.00;17.02;;;;;;;;;;4987962;28;20025;-84
2022/07/12 06:39:35;;;;;;;39.35;16.08;;;;;;;;;;5018640;28;20034;-84
2022/07/12 06:42:03;;;;;;;46.63;17.58;;;;;;;;;;5003262;28;20048;-83
2022/07/12 06:44:33;;;;;;;49.90;17.38;;;;;;;;;;5019750;28;20128;-84
2022/07/12 06:46:59;;;;;;;47.53;17.00;;;;;;;;;;5022380;28;20064;-85
2022/07/12 06:49:25;;;;;;;45.13;16.63;;;;;;;;;;5009767;28;20507;-85
2022/07/12 06:51:51;;;;;;;45.88;17.42;;;;;;;;;;5000384;28;20352;-85
2022/07/12 06:54:17;;;;;;;49.65;16.60;;;;;;;;;;5015730;28;20446;-85
2022/07/12 06:56:43;;;;;;;49.58;16.20;;;;;;;;;;4968914;28;20030;-85
2022/07/12 06:59:10;;;;;;;40.90;16.40;;;;;;;;;;4998775;28;20094;-86
2022/07/12 07:01:37;;;;;;;38.58;17.10;;;;;;;;;;5000998;28;20296;-88
2022/07/12 07:04:03;;;;;;;43.95;21.58;;;;;;;;;;5022633;28;20034;-91
2022/07/12 07:06:33;;;;;;;45.70;17.02;;;;;;;;;;4990068;28;20026;-90
2022/07/12 07:08:58;;;;;;;49.53;17.80;;;;;;;;;;4996329;28;20064;-87
2022/07/12 07:11:25;;;;;;;38.92;16.35;;;;;;;;;;5002667;28;20057;-85
2022/07/12 07:13:51;;;;;;;38.40;16.98;;;;;;;;;;4981369;28;20088;-85
2022/07/12 07:16:20;;;;;;;41.50;17.00;;;;;;;;;;4988848;28;20034;-85
2022/07/12 07:18:50;;;;;;;44.40;16.60;;;;;;;;;;5019349;28;20292;-85
2022/07/12 07:21:16;;;;;;;32.45;15.75;;;;;;;;;;5020288;28;20050;-84
2022/07/12 07:23:46;;;;;;;48.88;16.10;;;;;;;;;;4996013;28;20046;-86
2022/07/12 07:26:12;;;;;;;31.63;14.40;;;;;;;;;;5017295;28;20129;-85
2022/07/12 07:31:23;;;;;;;51.50;14.93;;;;;;;;;;5021647;28;20030;-89
2022/07/12 07:33:49;;;;;;;55.53;16.85;;;;;;;;;;5002510;28;20064;-85
2022/07/12 07:36:15;;;;;;;43.55;15.48;;;;;;;;;;5021589;28;20408;-87
2022/07/12 07:38:47;;;;;;;49.60;14.52;;;;;;;;;;5016185;28;20105;-85
2022/07/12 07:41:14;;;;;;;33.80;12.95;;;;;;;;;;5041891;28;20045;-85
2022/07/12 07:43:40;;;;;;;34.53;12.27;;;;;;;;;;5043346;28;20168;-84
2022/07/12 07:46:09;;;;;;;60.23;13.77;;;;;;;;;;5019813;28;20403;-86
2022/07/12 07:48:35;;;;;;;33.22;12.57;;;;;;;;;;5015670;28;20026;-86
2022/07/12 07:51:01;;;;;;;27.80;11.45;;;;;;;;;;5022486;28;20044;-86
2022/07/12 07:53:27;;;;;;;27.40;12.48;;;;;;;;;;5011674;28;20042;-87
2022/07/12 07:55:53;;;;;;;29.93;12.10;;;;;;;;;;4997589;28;20040;-87
2022/07/12 07:58:22;;;;;;;32.90;11.93;;;;;;;;;;4996830;28;20293;-87
2022/07/12 08:00:54;;;;;;;27.08;12.18;;;;;;;;;;4998446;28;20148;-87
2022/07/12 08:03:25;;;;;;;26.52;12.82;;;;;;;;;;4986141;28;20038;-88
2022/07/12 08:06:01;;;;;;;27.60;12.32;;;;;;;;;;4982487;28;20470;-88
2022/07/12 08:08:30;;;;;;;27.38;12.43;;;;;;;;;;4996417;28;20050;-87
2022/07/12 08:10:56;;;;;;;24.48;11.65;;;;;;;;;;4978866;28;20116;-87
2022/07/12 08:13:22;;;;;;;29.17;13.05;;;;;;;;;;5004361;28;20046;-85
2022/07/12 08:15:49;;;;;;;27.92;11.98;;;;;;;;;;5002642;28;20042;-87
2022/07/12 08:18:15;;;;;;;27.80;12.27;;;;;;;;;;4998781;28;20108;-88
2022/07/12 08:20:41;;;;;;;37.42;13.30;;;;;;;;;;4994396;28;20038;-88
2022/07/12 08:23:07;;;;;;;49.15;13.93;;;;;;;;;;4999733;28;20049;-86
2022/07/12 08:25:33;;;;;;;27.83;12.45;;;;;;;;;;4995966;28;20030;-87
2022/07/12 08:28:00;;;;;;;49.78;13.65;;;;;;;;;;4997756;28;20048;-87
2022/07/12 08:30:35;;;;;;;41.03;13.38;;;;;;;;;;5001425;28;20038;-87
2022/07/12 08:33:13;;;;;;;33.28;13.77;;;;;;;;;;4978808;28;20027;-85
2022/07/12 08:35:39;;;;;;;27.38;13.25;;;;;;;;;;4981947;28;20117;-87
2022/07/12 08:38:07;;;;;;;27.20;13.20;;;;;;;;;;5000791;28;20549;-84
2022/07/12 08:40:33;;;;;;;37.17;12.45;;;;;;;;;;4990484;28;20045;-89
2022/07/12 08:43:00;;;;;;;34.15;12.63;;;;;;;;;;4983278;28;20038;-89
2022/07/12 08:45:26;;;;;;;36.10;12.93;;;;;;;;;;4965141;28;20062;-84
2022/07/12 08:47:52;;;;;;;28.42;12.57;;;;;;;;;;4987843;28;20652;-85
2022/07/12 08:50:19;;;;;;;29.48;11.60;;;;;;;;;;4966243;28;20034;-87
2022/07/12 08:52:46;;;;;;;39.58;13.88;;;;;;;;;;4997060;28;20035;-85
2022/07/12 08:55:21;;;;;;;37.30;12.35;;;;;;;;;;4968852;28;20038;-90
2022/07/12 08:57:47;;;;;;;30.92;12.27;;;;;;;;;;4946412;28;20038;-91
2022/07/12 09:00:15;;;;;;;24.38;11.98;;;;;;;;;;4943668;28;20109;-89
2022/07/12 09:02:46;;;;;;;25.42;11.57;;;;;;;;;;4942266;28;20085;-88
2022/07/12 09:05:15;;;;;;;36.85;12.77;;;;;;;;;;4989063;28;20042;-87
2022/07/12 09:07:41;;;;;;;33.28;12.10;;;;;;;;;;4950821;28;20054;-88
2022/07/12 09:10:08;;;;;;;25.95;12.73;;;;;;;;;;4954085;28;20065;-88
2022/07/12 09:12:47;;;;;;;30.95;11.63;;;;;;;;;;4963557;28;20047;-88
2022/07/12 09:15:30;;;;;;;67.35;16.23;;;;;;;;;;5002883;28;20034;-89
2022/07/12 09:18:13;;;;;;;46.60;12.40;;;;;;;;;;5010555;28;20053;-96
2022/07/12 09:20:40;;;;;;;23.52;11.20;;;;;;;;;;4979210;28;20057;-85
2022/07/12 09:23:08;;;;;;;23.55;10.98;;;;;;;;;;4968275;28;20042;-86
2022/07/12 09:25:45;;;;;;;41.50;12.27;;;;;;;;;;5002423;28;20211;-88
2022/07/12 09:28:15;;;;;;;30.20;11.50;;;;;;;;;;4952588;28;20106;-87
2022/07/12 09:30:50;;;;;;;25.35;11.63;;;;;;;;;;5002678;28;20034;-84
2022/07/12 09:36:12;;;;;;;22.00;11.35;;;;;;;;;;4997571;28;20046;-84
2022/07/12 09:38:48;;;;;;;43.73;13.13;;;;;;;;;;4984569;28;20038;-84
2022/07/12 09:41:18;;;;;;;27.25;12.52;;;;;;;;;;5008232;28;20046;-84
2022/07/12 09:43:44;;;;;;;34.67;12.73;;;;;;;;;;5007423;28;20061;-82
2022/07/12 09:46:10;;;;;;;55.03;12.88;;;;;;;;;;4997285;28;20041;-84
2022/07/12 09:48:37;;;;;;;36.08;12.18;;;;;;;;;;4995160;28;20038;-86
2022/07/12 09:51:07;;;;;;;18.52;11.45;;;;;;;;;;5001972;28;20048;-86
2022/07/12 09:53:37;;;;;;;36.67;12.38;;;;;;;;;;4997665;28;20496;-88
2022/07/12 09:56:07;;;;;;;23.50;11.68;;;;;;;;;;4983881;28;20036;-88
2022/07/12 09:58:40;;;;;;;25.73;12.70;;;;;;;;;;4999927;28;20088;-91
2022/07/12 10:01:07;;;;;;;29.75;12.70;;;;;;;;;;4989760;28;20089;-88
2022/07/12 10:03:35;;;;;;;33.75;12.05;;;;;;;;;;5007734;28;20034;-85
2022/07/12 10:06:01;;;;;;;;;;;;;;;;;;5019877;28;20041;-84
2022/07/12 10:08:28;;;;;;;29.00;10.60;;;;;;;;;;4984828;28;19956;-85
2022/07/12 10:10:54;;;;;;;31.33;10.88;;;;;;;;;;5005913;28;20533;-86
2022/07/12 10:13:35;;;;;;;31.70;10.20;;;;;;;;;;4983992;28;20034;-85
2022/07/12 10:16:04;;;;;;;25.05;9.07;;;;;;;;;;5022757;28;20132;-87
2022/07/12 10:18:43;;;;;;;23.98;8.85;;;;;;;;;;5020227;28;20037;-86
2022/07/12 10:21:22;;;;;;;15.02;7.50;;;;;;;;;;5016029;28;20092;-85
2022/07/12 10:23:48;;;;;;;21.88;7.68;;;;;;;;;;4990996;28;20568;-87
2022/07/12 10:26:41;;;;;;;19.08;6.00;;;;;;;;;;5038143;28;20049;-85
2022/07/12 10:29:18;;;;;;;16.08;6.45;;;;;;;;;;4998517;28;20095;-87
2022/07/12 10:31:46;;;;;;;16.65;5.95;;;;;;;;;;5014060;28;20053;-85
2022/07/12 10:34:12;;;;;;;;;;;;;;;;;;4995627;28;20104;-86
2022/07/12 10:36:54;;;;;;;17.15;4.93;;;;;;;;;;5016637;28;19920;-87
2022/07/12 10:39:26;;;;;;;16.35;5.22;;;;;;;;;;4983473;28;20032;-85
2022/07/12 10:42:05;;;;;;;20.35;4.68;;;;;;;;;;4982431;28;20157;-87
2022/07/12 10:44:34;;;;;;;13.50;5.25;;;;;;;;;;4964493;28;20022;-88
2022/07/12 10:47:00;;;;;;;17.52;4.80;;;;;;;;;;4998785;28;20042;-88
2022/07/12 10:49:27;;;;;;;12.07;4.20;;;;;;;;;;4962499;28;20046;-89
2022/07/12 10:52:11;;;;;;;15.68;3.80;;;;;;;;;;4998266;28;20045;-91
2022/07/12 10:54:50;;;;;;;9.65;3.40;;;;;;;;;;4998578;28;20039;-91
2022/07/12 10:57:35;;;;;;;15.18;3.45;;;;;;;;;;4993434;28;20030;-91
2022/07/12 11:00:02;;;;;;;14.80;3.47;;;;;;;;;;4938320;29;20070;-88
2022/07/12 11:02:29;;;;;;;10.05;3.30;;;;;;;;;;4956072;28;20062;-92
2022/07/12 11:04:57;;;;;;;7.65;3.20;;;;;;;;;;4935420;29;20067;-86
2022/07/12 11:07:24;;;;;;;27.95;3.95;;;;;;;;;;4954665;28;20507;-85
2022/07/12 11:09:53;;;;;;;12.25;4.45;;;;;;;;;;4957492;28;20027;-85
2022/07/12 11:12:19;;;;;;;15.38;3.83;;;;;;;;;;4941545;29;20583;-87
2022/07/12 11:14:46;;;;;;;15.75;3.78;;;;;;;;;;4932735;29;20035;-90
2022/07/12 11:17:13;;;;;;;8.85;3.70;;;;;;;;;;4933724;28;20065;-88
2022/07/12 11:19:40;;;;;;;14.25;3.63;;;;;;;;;;4938800;29;20527;-86
2022/07/12 11:22:06;;;;;;;8.65;3.50;;;;;;;;;;4939344;29;20055;-87
2022/07/12 11:24:38;;;;;;;11.43;3.88;;;;;;;;;;4952729;29;20054;-87
2022/07/12 11:27:05;;;;;;;11.50;3.42;;;;;;;;;;4937266;29;20070;-87
2022/07/12 11:29:37;;;;;;;12.00;3.40;;;;;;;;;;4941941;29;20174;-85
2022/07/12 11:32:07;;;;;;;13.15;3.83;;;;;;;;;;4922895;29;20048;-86
2022/07/12 11:34:34;;;;;;;14.38;3.85;;;;;;;;;;4965261;28;20031;-86
2022/07/12 11:37:03;;;;;;;4.50;3.40;;;;;;;;;;4967283;28;20037;-87
2022/07/12 11:39:32;;;;;;;17.17;4.10;;;;;;;;;;5001593;28;20030;-86
2022/07/12 11:41:59;;;;;;;7.78;3.70;;;;;;;;;;4994643;28;20056;-86
2022/07/12 11:44:43;;;;;;;13.18;3.58;;;;;;;;;;4983599;28;20034;-90
2022/07/12 11:47:14;;;;;;;11.98;3.78;;;;;;;;;;4956038;28;20034;-92
2022/07/12 11:49:47;;;;;;;6.88;3.83;;;;;;;;;;4987410;28;20117;-92
2022/07/12 11:52:14;;;;;;;17.67;4.30;;;;;;;;;;4982615;28;20061;-89
2022/07/12 11:54:40;;;;;;;10.07;4.38;;;;;;;;;;4964139;28;20034;-91
2022/07/12 11:57:21;;;;;;;13.88;4.07;;;;;;;;;;4965020;28;20037;-90
2022/07/12 12:02:33;;;;;;;22.23;4.18;;;;;;;;;;4998410;28;20049;-89
2022/07/12 12:05:04;;;;;;;19.63;4.03;;;;;;;;;;4983161;28;20038;-93
2022/07/12 12:07:42;;;;;;;19.45;4.55;;;;;;;;;;4912208;29;20046;-90
2022/07/12 12:10:16;;;;;;;5.97;3.38;;;;;;;;;;4942776;29;20047;-90
2022/07/12 12:12:44;;;;;;;8.98;3.88;;;;;;;;;;4943798;29;20043;-91
2022/07/12 12:15:13;;;;;;;12.13;4.28;;;;;;;;;;4931029;29;20039;-89
2022/07/12 12:17:51;;;;;;;14.75;3.70;;;;;;;;;;4923713;29;20067;-88
2022/07/12 12:20:19;;;;;;;7.75;3.55;;;;;;;;;;4961121;29;20035;-89
2022/07/12 12:22:53;;;;;;;6.88;3.30;;;;;;;;;;4949141;29;20047;-90
2022/07/12 12:25:24;;;;;;;8.07;3.40;;;;;;;;;;4958815;29;20402;-96
2022/07/12 12:28:10;;;;;;;9.13;3.75;;;;;;;;;;4943565;29;20047;-89
2022/07/12 12:30:48;;;;;;;8.73;3.45;;;;;;;;;;4978545;28;20066;-90
2022/07/12 12:33:34;;;;;;;5.07;3.47;;;;;;;;;;4961580;29;20054;-85
2022/07/12 12:36:34;;;;;;;9.60;3.35;;;;;;;;;;4947622;29;20035;-90
2022/07/12 12:39:05;;;;;;;27.83;4.72;;;;;;;;;;4958586;28;20038;-93
2022/07/12 12:41:42;;;;;;;24.38;5.10;;;;;;;;;;4994400;28;20484;-88
2022/07/12 12:44:20;;;;;;;11.85;4.65;;;;;;;;;;4967212;28;20133;-87
2022/07/12 12:46:49;;;;;;;14.68;4.30;;;;;;;;;;4986226;28;20073;-90
2022/07/12 12:49:15;;;;;;;15.93;3.70;;;;;;;;;;4963105;28;20040;-95
2022/07/12 12:51:55;;;;;;;7.95;3.17;;;;;;;;;;4934805;29;20043;-88
2022/07/12 12:54:50;;;;;;;11.63;4.20;;;;;;;;;;4956953;29;20094;-90
2022/07/12 12:57:18;;;;;;;20.50;4.43;;;;;;;;;;4916339;29;20564;-90
2022/07/12 13:00:23;;;;;;;9.85;4.82;;;;;;;;;;4913547;29;20016;-89
2022/07/12 13:03:14;;;;;;;28.67;4.32;;;;;;;;;;4927344;29;20050;-89
2022/07/12 13:05:40;;;;;;;11.23;4.82;;;;;;;;;;4910120;29;20040;-91
2022/07/12 13:08:07;;;;;;;11.95;4.80;;;;;;;;;;4917398;29;20083;-90
2022/07/12 13:10:37;;;;;;;12.88;5.70;;;;;;;;;;4924437;29;20502;-90
2022/07/12 13:13:26;;;;;;;13.38;4.35;;;;;;;;;;4922283;29;20044;-90
2022/07/12 13:15:53;;;;;;;10.02;4.22;;;;;;;;;;4928776;29;20044;-96
2022/07/12 13:18:19;;;;;;;13.53;3.73;;;;;;;;;;4917097;29;20036;-90
2022/07/12 13:20:46;;;;;;;16.37;3.90;;;;;;;;;;4919581;29;20356;-88
2022/07/12 13:23:13;;;;;;;15.23;3.90;;;;;;;;;;4925071;29;20284;-88
2022/07/12 13:25:39;;;;;;;18.15;4.18;;;;;;;;;;4927842;29;20103;-90
2022/07/12 13:28:06;;;;;;;16.45;3.72;;;;;;;;;;4925364;29;20048;-87
2022/07/12 13:30:32;;;;;;;20.08;3.80;;;;;;;;;;4950585;29;20055;-87
2022/07/12 13:32:58;;;;;;;11.18;3.50;;;;;;;;;;4974568;28;20124;-88
2022/07/12 13:35:46;;;;;;;10.18;3.80;;;;;;;;;;5022151;28;20052;-87
2022/07/12 13:38:16;;;;;;;10.20;2.90;;;;;;;;;;4990418;28;20057;-94
2022/07/12 13:40:42;;;;;;;25.02;3.15;;;;;;;;;;4961066;28;20050;-92
2022/07/12 13:43:09;;;;;;;12.13;4.03;;;;;;;;;;4983474;28;20725;-90
2022/07/12 13:45:36;;;;;;;15.32;3.90;;;;;;;;;;4967116;28;20427;-91
2022/07/12 13:48:03;;;;;;;14.85;3.45;;;;;;;;;;4947049;29;20146;-93
2022/07/12 13:50:34;;;;;;;10.98;3.50;;;;;;;;;;4958360;28;20082;-91
2022/07/12 13:53:00;;;;;;;10.45;3.60;;;;;;;;;;4962636;28;20031;-91
2022/07/12 13:55:28;;;;;;;17.10;3.70;;;;;;;;;;4967275;28;20042;-95
2022/07/12 13:57:57;;;;;;;12.02;3.65;;;;;;;;;;4968833;28;20042;-95
2022/07/12 14:00:23;;;;;;;9.65;3.83;;;;;;;;;;4950257;28;20038;-89
2022/07/12 14:02:50;;;;;;;12.50;3.67;;;;;;;;;;4968267;28;20058;-89
2022/07/12 14:05:16;;;;;;;16.55;4.28;;;;;;;;;;4999126;28;20034;-94
2022/07/12 14:07:45;;;;;;;12.88;3.90;;;;;;;;;;4964581;28;20042;-93
2022/07/12 14:10:12;;;;;;;8.57;4.13;;;;;;;;;;4952939;28;20070;-94
2022/07/12 14:12:56;;;;;;;8.70;3.70;;;;;;;;;;4986014;28;20038;-96
2022/07/12 14:15:37;;;;;;;7.43;3.70;;;;;;;;;;4948572;28;20062;-88
2022/07/12 14:18:06;;;;;;;7.10;3.45;;;;;;;;;;4997500;28;20141;-90
2022/07/12 14:20:33;;;;;;;9.52;4.15;;;;;;;;;;4969655;28;20026;-96
2022/07/12 14:23:24;;;;;;;6.70;3.67;;;;;;;;;;4990846;23;20051;-96
2022/07/12 14:25:55;;;;;;;7.03;3.33;;;;;;;;;;4945034;29;20047;-95
2022/07/12 14:28:21;;;;;;;7.50;4.10;;;;;;;;;;4929923;29;20036;-95
2022/07/12 14:30:47;;;;;;;7.50;4.38;;;;;;;;;;4945898;29;20103;-94
2022/07/12 14:36:21;;;;;;;13.18;4.95;;;;;;;;;;4925263;29;19997;-95
2022/07/12 14:38:47;;;;;;;13.77;5.40;;;;;;;;;;4913842;29;20516;-95
2022/07/12 14:41:14;;;;;;;14.82;4.88;;;;;;;;;;4926243;29;20048;-95
2022/07/12 14:44:08;;;;;;;13.60;5.30;;;;;;;;;;4911443;29;20064;-95
2022/07/12 14:46:40;;;;;;;10.88;4.82;;;;;;;;;;4895760;29;20040;-94
2022/07/12 14:50:04;;;;;;;9.82;4.70;;;;;;;;;;4924486;29;20075;-96
2022/07/12 14:52:28;;;;;;;9.35;4.32;;;;;;;;;;4888128;29;20510;-94
2022/07/12 14:55:03;;;;;;;9.05;4.60;;;;;;;;;;4909621;29;20042;-95
2022/07/12 14:57:32;;;;;;;11.65;4.78;;;;;;;;;;4883907;29;20166;-96
2022/07/12 14:59:59;;;;;;;7.95;4.60;;;;;;;;;;4904166;29;20032;-94
2022/07/12 15:02:29;;;;;;;14.98;5.15;;;;;;;;;;4911911;29;20115;-94
2022/07/12 15:04:55;;;;;;;13.80;5.20;;;;;;;;;;4917919;29;20051;-93
2022/07/12 15:07:24;;;;;;;8.82;4.90;;;;;;;;;;4929599;29;20012;-95
2022/07/12 15:10:05;;;;;;;11.23;4.93;;;;;;;;;;4910337;29;20047;-95
2022/07/12 15:12:34;;;;;;;16.92;5.22;;;;;;;;;;4914051;29;20124;-95